createdAt,value
2017-01-09T00:00:15.323Z,0
2017-01-09T00:01:15.234Z,0
2017-01-09T00:02:16.079Z,0
2017-01-09T00:03:15.193Z,0
2017-01-09T00:04:15.673Z,0
2017-01-09T00:05:15.364Z,0
2017-01-09T00:06:15.438Z,0
2017-01-09T00:07:15.342Z,0
2017-01-09T00:08:15.405Z,0
2017-01-09T00:09:15.255Z,0
2017-01-09T00:10:15.340Z,0
2017-01-09T00:11:15.428Z,0
2017-01-09T00:12:15.374Z,0
2017-01-09T00:13:15.344Z,0
2017-01-09T00:14:15.319Z,0
2017-01-09T00:15:16.421Z,0
2017-01-09T00:16:15.433Z,0
2017-01-09T00:17:15.140Z,0
2017-01-09T00:18:15.517Z,0
2017-01-09T00:19:15.361Z,0
2017-01-09T00:20:15.400Z,0
2017-01-09T00:21:15.341Z,0
2017-01-09T00:22:15.288Z,0
2017-01-09T00:23:15.406Z,0
2017-01-09T00:24:15.565Z,0
2017-01-09T00:25:17.070Z,0
2017-01-09T00:26:15.339Z,0
2017-01-09T00:27:15.430Z,0
2017-01-09T00:28:15.535Z,0
2017-01-09T00:29:15.338Z,0
2017-01-09T00:30:15.525Z,0
2017-01-09T00:31:15.502Z,0
2017-01-09T00:32:15.446Z,0
2017-01-09T00:33:15.437Z,0
2017-01-09T00:34:15.531Z,0
2017-01-09T00:35:15.376Z,0
2017-01-09T00:36:15.491Z,0
2017-01-09T00:37:15.380Z,0
2017-01-09T00:38:16.084Z,0
2017-01-09T00:39:15.301Z,0
2017-01-09T00:40:15.364Z,0
2017-01-09T00:41:15.417Z,0
2017-01-09T00:42:15.477Z,0
2017-01-09T00:43:15.399Z,0
2017-01-09T00:44:15.453Z,0
2017-01-09T00:45:15.455Z,0
2017-01-09T00:46:15.329Z,0
2017-01-09T00:47:15.270Z,0
2017-01-09T00:48:15.478Z,0
2017-01-09T00:49:15.247Z,0
2017-01-09T00:50:15.573Z,0
2017-01-09T00:51:15.370Z,0
2017-01-09T00:52:15.239Z,0
2017-01-09T00:53:15.309Z,0
2017-01-09T00:54:15.410Z,0
2017-01-09T00:55:15.435Z,0
2017-01-09T00:56:15.219Z,0
2017-01-09T00:57:15.291Z,0
2017-01-09T00:58:15.370Z,0
2017-01-09T00:59:15.308Z,0
2017-01-09T01:00:15.435Z,0
2017-01-09T01:01:15.339Z,0
2017-01-09T01:02:15.307Z,0
2017-01-09T01:03:15.271Z,0
2017-01-09T01:04:15.362Z,0
2017-01-09T01:05:15.497Z,0
2017-01-09T01:06:15.415Z,0
2017-01-09T01:07:15.338Z,0
2017-01-09T01:08:15.393Z,0
2017-01-09T01:09:15.328Z,0
2017-01-09T01:10:15.269Z,0
2017-01-09T01:11:15.328Z,0
2017-01-09T01:12:15.289Z,0
2017-01-09T01:13:15.449Z,0
2017-01-09T01:14:15.194Z,0
2017-01-09T01:15:15.430Z,0
2017-01-09T01:16:15.197Z,0
2017-01-09T01:17:15.149Z,0
2017-01-09T01:18:15.322Z,0
2017-01-09T01:19:15.379Z,0
2017-01-09T01:20:16.966Z,0
2017-01-09T01:21:15.463Z,0
2017-01-09T01:22:15.254Z,0
2017-01-09T01:23:15.330Z,0
2017-01-09T01:24:15.298Z,0
2017-01-09T01:25:15.477Z,0
2017-01-09T01:26:15.505Z,0
2017-01-09T01:27:15.338Z,0
2017-01-09T01:28:15.277Z,0
2017-01-09T01:29:15.314Z,0
2017-01-09T01:30:15.990Z,0
2017-01-09T01:31:15.505Z,0
2017-01-09T01:32:15.256Z,0
2017-01-09T01:33:15.357Z,0
2017-01-09T01:34:15.430Z,0
2017-01-09T01:35:15.280Z,0
2017-01-09T01:36:15.343Z,0
2017-01-09T01:37:15.297Z,0
2017-01-09T01:38:15.472Z,0
2017-01-09T01:39:15.231Z,0
2017-01-09T01:40:20.424Z,0
2017-01-09T01:41:15.407Z,0
2017-01-09T01:42:15.315Z,0
2017-01-09T01:43:15.572Z,0
2017-01-09T01:44:15.435Z,0
2017-01-09T01:45:15.317Z,0
2017-01-09T01:46:15.258Z,0
2017-01-09T01:47:15.235Z,0
2017-01-09T01:48:15.614Z,0
2017-01-09T01:49:15.345Z,0
2017-01-09T01:50:15.277Z,0
2017-01-09T01:51:15.386Z,0
2017-01-09T01:52:15.260Z,0
2017-01-09T01:53:15.244Z,0
2017-01-09T01:54:15.302Z,0
2017-01-09T01:55:15.242Z,0
2017-01-09T01:56:15.400Z,0
2017-01-09T01:57:15.283Z,0
2017-01-09T01:58:15.351Z,0
2017-01-09T01:59:15.304Z,0
2017-01-09T02:00:15.446Z,0
2017-01-09T02:01:15.343Z,0
2017-01-09T02:02:15.390Z,0
2017-01-09T02:03:16.281Z,0
2017-01-09T02:04:15.381Z,0
2017-01-09T02:05:15.452Z,0
2017-01-09T02:06:15.392Z,0
2017-01-09T02:07:16.379Z,0
2017-01-09T02:08:15.510Z,0
2017-01-09T02:09:15.272Z,0
2017-01-09T02:10:15.410Z,0
2017-01-09T02:11:15.289Z,0
2017-01-09T02:12:15.546Z,0
2017-01-09T02:13:15.475Z,0
2017-01-09T02:14:15.382Z,0
2017-01-09T02:15:15.442Z,0
2017-01-09T02:16:15.339Z,0
2017-01-09T02:17:15.288Z,0
2017-01-09T02:18:15.453Z,0
2017-01-09T02:19:15.423Z,0
2017-01-09T02:20:15.346Z,0
2017-01-09T02:21:15.371Z,0
2017-01-09T02:22:15.379Z,0
2017-01-09T02:23:15.286Z,0
2017-01-09T02:24:15.411Z,0
2017-01-09T02:25:15.428Z,0
2017-01-09T02:26:15.453Z,0
2017-01-09T02:27:15.301Z,0
2017-01-09T02:28:15.482Z,0
2017-01-09T02:29:15.492Z,0
2017-01-09T02:30:15.502Z,0
2017-01-09T02:31:15.381Z,0
2017-01-09T02:32:15.321Z,0
2017-01-09T02:33:15.270Z,0
2017-01-09T02:34:16.081Z,0
2017-01-09T02:35:15.383Z,0
2017-01-09T02:36:15.457Z,0
2017-01-09T02:37:15.265Z,0
2017-01-09T02:38:15.524Z,0
2017-01-09T02:39:15.345Z,0
2017-01-09T02:40:15.480Z,0
2017-01-09T02:41:15.470Z,0
2017-01-09T02:42:15.232Z,0
2017-01-09T02:43:15.312Z,0
2017-01-09T02:44:15.502Z,0
2017-01-09T02:45:15.456Z,0
2017-01-09T02:46:15.477Z,0
2017-01-09T02:47:15.354Z,0
2017-01-09T02:48:16.504Z,0
2017-01-09T02:49:15.387Z,0
2017-01-09T02:50:15.401Z,0
2017-01-09T02:51:15.477Z,0
2017-01-09T02:52:15.380Z,0
2017-01-09T02:53:15.499Z,0
2017-01-09T02:54:15.511Z,0
2017-01-09T02:55:15.544Z,0
2017-01-09T02:56:15.419Z,0
2017-01-09T02:57:15.448Z,0
2017-01-09T02:58:15.430Z,0
2017-01-09T02:59:15.455Z,0
2017-01-09T03:00:15.491Z,0
2017-01-09T03:01:18.827Z,0
2017-01-09T03:02:15.477Z,0
2017-01-09T03:03:15.342Z,0
2017-01-09T03:04:15.487Z,0
2017-01-09T03:05:15.540Z,0
2017-01-09T03:06:15.500Z,0
2017-01-09T03:07:15.341Z,0
2017-01-09T03:08:15.479Z,0
2017-01-09T03:09:15.460Z,0
2017-01-09T03:10:16.227Z,0
2017-01-09T03:11:15.468Z,0
2017-01-09T03:12:15.467Z,0
2017-01-09T03:13:15.481Z,0
2017-01-09T03:14:15.351Z,0
2017-01-09T03:15:15.378Z,0
2017-01-09T03:16:16.358Z,0
2017-01-09T03:17:15.502Z,0
2017-01-09T03:18:15.394Z,0
2017-01-09T03:19:15.552Z,0
2017-01-09T03:20:15.530Z,0
2017-01-09T03:21:15.401Z,0
2017-01-09T03:22:15.435Z,0
2017-01-09T03:23:15.372Z,0
2017-01-09T03:24:16.051Z,0
2017-01-09T03:25:15.374Z,0
2017-01-09T03:26:15.333Z,0
2017-01-09T03:27:15.541Z,0
2017-01-09T03:28:15.514Z,0
2017-01-09T03:29:15.334Z,0
2017-01-09T03:30:15.548Z,0
2017-01-09T03:31:15.420Z,0
2017-01-09T03:32:15.435Z,0
2017-01-09T03:33:15.454Z,0
2017-01-09T03:34:15.640Z,0
2017-01-09T03:35:15.298Z,0
2017-01-09T03:36:15.407Z,0
2017-01-09T03:37:15.527Z,0
2017-01-09T03:38:15.554Z,0
2017-01-09T03:39:15.583Z,0
2017-01-09T03:40:15.512Z,0
2017-01-09T03:41:15.420Z,0
2017-01-09T03:42:15.425Z,0
2017-01-09T03:43:15.474Z,0
2017-01-09T03:44:15.445Z,0
2017-01-09T03:45:15.336Z,0
2017-01-09T03:46:15.454Z,0
2017-01-09T03:47:15.557Z,0
2017-01-09T03:48:15.522Z,0
2017-01-09T03:49:15.495Z,0
2017-01-09T03:50:15.563Z,0
2017-01-09T03:51:15.536Z,0
2017-01-09T03:52:15.599Z,0
2017-01-09T03:53:15.532Z,0
2017-01-09T03:54:15.465Z,0
2017-01-09T03:55:15.515Z,0
2017-01-09T03:56:15.486Z,0
2017-01-09T03:57:16.191Z,0
2017-01-09T03:58:15.676Z,0
2017-01-09T03:59:15.413Z,0
2017-01-09T04:00:15.445Z,0
2017-01-09T04:01:15.590Z,0
2017-01-09T04:02:15.424Z,0
2017-01-09T04:03:15.491Z,0
2017-01-09T04:04:16.148Z,0
2017-01-09T04:05:15.636Z,0
2017-01-09T04:06:15.591Z,0
2017-01-09T04:07:15.397Z,0
2017-01-09T04:08:15.474Z,0
2017-01-09T04:09:15.470Z,0
2017-01-09T04:10:15.512Z,0
2017-01-09T04:11:15.492Z,0
2017-01-09T04:12:15.523Z,0
2017-01-09T04:13:15.618Z,0
2017-01-09T04:14:16.099Z,0
2017-01-09T04:15:15.743Z,0
2017-01-09T04:16:15.534Z,0
2017-01-09T04:17:15.553Z,0
2017-01-09T04:18:15.652Z,0
2017-01-09T04:19:15.561Z,0
2017-01-09T04:20:15.530Z,0
2017-01-09T04:21:15.385Z,0
2017-01-09T04:22:16.064Z,0
2017-01-09T04:23:15.612Z,0
2017-01-09T04:24:15.573Z,0
2017-01-09T04:25:15.392Z,0
2017-01-09T04:26:15.904Z,0
2017-01-09T04:27:15.578Z,0
2017-01-09T04:28:15.441Z,0
2017-01-09T04:29:15.571Z,0
2017-01-09T04:30:15.566Z,0
2017-01-09T04:31:15.473Z,0
2017-01-09T04:32:15.484Z,0
2017-01-09T04:33:15.582Z,0
2017-01-09T04:34:15.631Z,0
2017-01-09T04:35:15.490Z,0
2017-01-09T04:36:15.473Z,0
2017-01-09T04:37:15.523Z,0
2017-01-09T04:38:15.562Z,0
2017-01-09T04:39:16.398Z,0
2017-01-09T04:40:15.558Z,0
2017-01-09T04:41:15.439Z,0
2017-01-09T04:42:15.463Z,0
2017-01-09T04:43:15.568Z,0
2017-01-09T04:44:15.452Z,0
2017-01-09T04:45:15.492Z,0
2017-01-09T04:46:15.542Z,0
2017-01-09T04:47:15.491Z,0
2017-01-09T04:48:15.554Z,0
2017-01-09T04:49:15.567Z,0
2017-01-09T04:50:15.960Z,0
2017-01-09T04:51:15.586Z,0
2017-01-09T04:52:15.488Z,0
2017-01-09T04:53:15.599Z,0
2017-01-09T04:54:15.446Z,0
2017-01-09T04:55:15.484Z,0
2017-01-09T04:56:15.649Z,0
2017-01-09T04:57:15.611Z,0
2017-01-09T04:58:15.696Z,0
2017-01-09T04:59:15.515Z,0
2017-01-09T05:00:15.552Z,0
2017-01-09T05:01:15.611Z,0
2017-01-09T05:02:15.563Z,0
2017-01-09T05:03:15.578Z,0
2017-01-09T05:04:15.589Z,0
2017-01-09T05:05:15.618Z,0
2017-01-09T05:06:15.637Z,0
2017-01-09T05:07:16.730Z,0
2017-01-09T05:08:15.593Z,0
2017-01-09T05:09:15.638Z,0
2017-01-09T05:10:15.444Z,0
2017-01-09T05:11:15.501Z,0
2017-01-09T05:12:15.652Z,0
2017-01-09T05:13:15.563Z,0
2017-01-09T05:14:15.430Z,0
2017-01-09T05:15:15.599Z,0
2017-01-09T05:16:15.517Z,0
2017-01-09T05:17:15.549Z,0
2017-01-09T05:18:15.460Z,0
2017-01-09T05:19:15.690Z,0
2017-01-09T05:20:15.622Z,0
2017-01-09T05:21:15.527Z,0
2017-01-09T05:22:15.821Z,0
2017-01-09T05:23:15.656Z,0
2017-01-09T05:24:15.642Z,0
2017-01-09T05:25:15.592Z,0
2017-01-09T05:26:15.539Z,0
2017-01-09T05:27:15.682Z,0
2017-01-09T05:28:15.602Z,0
2017-01-09T05:29:16.186Z,0
2017-01-09T05:30:15.553Z,0
2017-01-09T05:31:15.601Z,0
2017-01-09T05:32:15.632Z,0
2017-01-09T05:33:15.754Z,0
2017-01-09T05:34:16.002Z,0
2017-01-09T05:35:16.672Z,0
2017-01-09T05:36:15.611Z,0
2017-01-09T05:37:15.662Z,0
2017-01-09T05:38:15.731Z,0
2017-01-09T05:39:16.229Z,0
2017-01-09T05:40:15.619Z,0
2017-01-09T05:41:16.605Z,0
2017-01-09T05:42:15.596Z,0
2017-01-09T05:43:15.711Z,0
2017-01-09T05:44:15.570Z,0
2017-01-09T05:45:15.756Z,0
2017-01-09T05:46:16.349Z,0
2017-01-09T05:47:15.673Z,0
2017-01-09T05:48:15.588Z,0
2017-01-09T05:49:15.639Z,0
2017-01-09T05:50:15.702Z,0
2017-01-09T05:51:15.568Z,0
2017-01-09T05:52:16.340Z,0
2017-01-09T05:53:15.642Z,0
2017-01-09T05:54:15.761Z,0
2017-01-09T05:55:15.715Z,0
2017-01-09T05:56:15.615Z,0
2017-01-09T05:57:15.705Z,0
2017-01-09T05:58:15.644Z,0
2017-01-09T05:59:15.646Z,0
2017-01-09T06:00:15.659Z,0
2017-01-09T06:01:15.625Z,0
2017-01-09T06:02:15.759Z,0
2017-01-09T06:03:15.743Z,0
2017-01-09T06:04:15.659Z,0
2017-01-09T06:05:15.863Z,0
2017-01-09T06:06:15.597Z,0
2017-01-09T06:07:15.667Z,0
2017-01-09T06:08:15.778Z,0
2017-01-09T06:09:15.674Z,0
2017-01-09T06:10:15.584Z,0
2017-01-09T06:11:15.628Z,0
2017-01-09T06:12:15.617Z,0
2017-01-09T06:13:15.706Z,0
2017-01-09T06:14:15.794Z,0
2017-01-09T06:15:15.825Z,0
2017-01-09T06:16:17.145Z,0
2017-01-09T06:17:15.751Z,0
2017-01-09T06:18:15.678Z,0
2017-01-09T06:19:15.674Z,0
2017-01-09T06:20:15.787Z,0
2017-01-09T06:21:15.747Z,0
2017-01-09T06:22:17.088Z,0
2017-01-09T06:23:15.763Z,0
2017-01-09T06:24:15.757Z,0
2017-01-09T06:25:17.282Z,0
2017-01-09T06:26:15.750Z,0
2017-01-09T06:27:15.728Z,0
2017-01-09T06:28:15.855Z,0
2017-01-09T06:29:15.733Z,0
2017-01-09T06:30:15.755Z,0
2017-01-09T06:31:15.695Z,0
2017-01-09T06:32:15.807Z,0
2017-01-09T06:33:15.717Z,0
2017-01-09T06:34:15.706Z,0
2017-01-09T06:35:16.294Z,0
2017-01-09T06:36:15.729Z,0
2017-01-09T06:37:15.758Z,0
2017-01-09T06:38:16.265Z,0
2017-01-09T06:39:16.739Z,0
2017-01-09T06:40:15.726Z,0
2017-01-09T06:41:15.944Z,0
2017-01-09T06:42:15.691Z,0
2017-01-09T06:43:25.602Z,0
2017-01-09T06:44:17.556Z,0
2017-01-09T06:45:15.696Z,0
2017-01-09T06:46:15.677Z,0
2017-01-09T06:47:15.745Z,0
2017-01-09T06:48:15.844Z,0
2017-01-09T06:49:15.842Z,0
2017-01-09T06:50:15.634Z,0
2017-01-09T06:51:15.775Z,0
2017-01-09T06:52:15.710Z,0
2017-01-09T06:53:15.704Z,0
2017-01-09T06:54:15.715Z,0
2017-01-09T06:55:15.775Z,0
2017-01-09T06:56:15.707Z,0
2017-01-09T06:57:15.695Z,0
2017-01-09T06:58:16.280Z,0
2017-01-09T06:59:15.830Z,0
2017-01-09T07:00:15.819Z,0
2017-01-09T07:01:15.664Z,0
2017-01-09T07:02:15.678Z,0
2017-01-09T07:03:15.755Z,0
2017-01-09T07:04:17.412Z,0
2017-01-09T07:05:16.363Z,0
2017-01-09T07:06:15.660Z,0
2017-01-09T07:07:15.675Z,0
2017-01-09T07:08:15.790Z,0
2017-01-09T07:09:15.702Z,0
2017-01-09T07:10:15.813Z,0
2017-01-09T07:11:15.699Z,0
2017-01-09T07:12:15.812Z,0
2017-01-09T07:13:15.861Z,0
2017-01-09T07:14:15.818Z,0
2017-01-09T07:15:21.501Z,0
2017-01-09T07:16:15.811Z,0
2017-01-09T07:17:15.890Z,0
2017-01-09T07:18:15.938Z,0
2017-01-09T07:19:15.823Z,0
2017-01-09T07:20:15.790Z,0
2017-01-09T07:21:15.896Z,0
2017-01-09T07:22:15.823Z,0
2017-01-09T07:23:15.719Z,0
2017-01-09T07:24:15.763Z,0
2017-01-09T07:25:15.780Z,0
2017-01-09T07:26:16.359Z,0
2017-01-09T07:27:15.797Z,0
2017-01-09T07:28:15.907Z,0
2017-01-09T07:29:15.833Z,0
2017-01-09T07:30:15.750Z,0
2017-01-09T07:31:15.850Z,0
2017-01-09T07:32:15.823Z,0
2017-01-09T07:33:15.890Z,5
2017-01-09T07:34:17.699Z,5
2017-01-09T07:35:15.747Z,5
2017-01-09T07:36:15.750Z,5
2017-01-09T07:37:15.672Z,5
2017-01-09T07:38:15.719Z,5
2017-01-09T07:39:15.858Z,5
2017-01-09T07:40:17.439Z,5
2017-01-09T07:41:15.817Z,5
2017-01-09T07:42:15.803Z,5
2017-01-09T07:43:15.826Z,5
2017-01-09T07:44:15.748Z,5
2017-01-09T07:45:15.802Z,5
2017-01-09T07:46:15.829Z,5
2017-01-09T07:47:15.825Z,10
2017-01-09T07:48:15.659Z,10
2017-01-09T07:49:15.768Z,10
2017-01-09T07:50:16.479Z,10
2017-01-09T07:51:15.827Z,10
2017-01-09T07:52:15.802Z,10
2017-01-09T07:53:15.860Z,10
2017-01-09T07:54:15.836Z,10
2017-01-09T07:55:15.794Z,10
2017-01-09T07:56:15.808Z,10
2017-01-09T07:57:15.884Z,10
2017-01-09T07:58:16.889Z,10
2017-01-09T07:59:15.749Z,10
2017-01-09T08:00:15.826Z,10
2017-01-09T08:01:15.881Z,10
2017-01-09T08:02:15.795Z,10
2017-01-09T08:03:15.786Z,10
2017-01-09T08:04:15.783Z,15
2017-01-09T08:05:16.465Z,15
2017-01-09T08:06:15.797Z,15
2017-01-09T08:07:15.913Z,15
2017-01-09T08:08:15.949Z,15
2017-01-09T08:09:15.855Z,20
2017-01-09T08:10:15.857Z,20
2017-01-09T08:11:15.985Z,20
2017-01-09T08:12:15.908Z,20
2017-01-09T08:13:15.934Z,20
2017-01-09T08:14:15.937Z,20
2017-01-09T08:15:15.941Z,20
2017-01-09T08:16:15.915Z,20
2017-01-09T08:17:16.064Z,20
2017-01-09T08:18:15.816Z,25
2017-01-09T08:19:15.881Z,25
2017-01-09T08:20:15.706Z,30
2017-01-09T08:21:15.819Z,30
2017-01-09T08:22:15.866Z,35
2017-01-09T08:23:15.834Z,35
2017-01-09T08:24:15.915Z,35
2017-01-09T08:25:15.839Z,35
2017-01-09T08:26:15.816Z,35
2017-01-09T08:27:16.052Z,35
2017-01-09T08:28:15.841Z,35
2017-01-09T08:29:16.190Z,35
2017-01-09T08:30:16.560Z,30
2017-01-09T08:31:15.933Z,30
2017-01-09T08:32:16.023Z,30
2017-01-09T08:33:16.830Z,30
2017-01-09T08:34:16.143Z,30
2017-01-09T08:35:16.067Z,30
2017-01-09T08:36:15.825Z,30
2017-01-09T08:37:16.065Z,35
2017-01-09T08:38:16.840Z,35
2017-01-09T08:39:15.830Z,35
2017-01-09T08:40:15.955Z,35
2017-01-09T08:41:15.818Z,40
2017-01-09T08:42:15.776Z,45
2017-01-09T08:43:16.169Z,50
2017-01-09T08:44:15.808Z,50
2017-01-09T08:45:15.803Z,50
2017-01-09T08:46:18.363Z,50
2017-01-09T08:47:15.808Z,45
2017-01-09T08:48:15.987Z,45
2017-01-09T08:49:16.020Z,45
2017-01-09T08:50:16.074Z,40
2017-01-09T08:51:15.975Z,45
2017-01-09T08:52:15.831Z,45
2017-01-09T08:53:16.014Z,45
2017-01-09T08:54:16.037Z,50
2017-01-09T08:55:16.011Z,50
2017-01-09T08:56:16.067Z,50
2017-01-09T08:57:15.806Z,50
2017-01-09T08:58:16.035Z,60
2017-01-09T08:59:16.862Z,65
2017-01-09T09:00:16.269Z,65
2017-01-09T09:01:15.972Z,65
2017-01-09T09:02:16.632Z,70
2017-01-09T09:03:15.889Z,70
2017-01-09T09:04:16.046Z,75
2017-01-09T09:05:15.891Z,75
2017-01-09T09:06:16.124Z,75
2017-01-09T09:07:15.970Z,75
2017-01-09T09:08:16.104Z,70
2017-01-09T09:09:16.733Z,65
2017-01-09T09:10:15.986Z,55
2017-01-09T09:11:16.901Z,50
2017-01-09T09:12:16.042Z,50
2017-01-09T09:13:15.924Z,50
2017-01-09T09:14:16.064Z,50
2017-01-09T09:15:16.020Z,50
2017-01-09T09:16:15.972Z,50
2017-01-09T09:17:15.973Z,45
2017-01-09T09:18:15.884Z,45
2017-01-09T09:19:15.994Z,45
2017-01-09T09:20:15.979Z,45
2017-01-09T09:21:15.927Z,45
2017-01-09T09:22:15.909Z,40
2017-01-09T09:23:16.151Z,40
2017-01-09T09:24:15.976Z,45
2017-01-09T09:25:16.070Z,50
2017-01-09T09:26:16.019Z,55
2017-01-09T09:27:15.935Z,55
2017-01-09T09:28:15.877Z,55
2017-01-09T09:29:16.600Z,60
2017-01-09T09:30:16.084Z,60
2017-01-09T09:31:15.875Z,60
2017-01-09T09:32:16.148Z,60
2017-01-09T09:33:15.952Z,65
2017-01-09T09:34:15.951Z,65
2017-01-09T09:35:15.919Z,65
2017-01-09T09:36:16.062Z,70
2017-01-09T09:37:16.185Z,70
2017-01-09T09:38:15.991Z,75
2017-01-09T09:39:16.130Z,75
2017-01-09T09:40:16.006Z,75
2017-01-09T09:41:15.989Z,80
2017-01-09T09:42:16.642Z,80
2017-01-09T09:43:15.976Z,85
2017-01-09T09:44:16.027Z,85
2017-01-09T09:45:16.063Z,95
2017-01-09T09:46:16.659Z,95
2017-01-09T09:47:16.286Z,95
2017-01-09T09:48:16.300Z,90
2017-01-09T09:49:16.428Z,90
2017-01-09T09:50:15.920Z,85
2017-01-09T09:51:15.999Z,85
2017-01-09T09:52:15.901Z,90
2017-01-09T09:53:16.103Z,90
2017-01-09T09:54:16.035Z,90
2017-01-09T09:55:16.104Z,90
2017-01-09T09:56:15.951Z,90
2017-01-09T09:57:16.066Z,95
2017-01-09T09:58:16.065Z,100
2017-01-09T09:59:16.183Z,100
2017-01-09T10:00:16.072Z,100
2017-01-09T10:01:15.963Z,100
2017-01-09T10:02:17.046Z,95
2017-01-09T10:03:16.084Z,85
2017-01-09T10:04:15.951Z,85
2017-01-09T10:05:16.173Z,85
2017-01-09T10:06:16.137Z,85
2017-01-09T10:07:16.053Z,90
2017-01-09T10:08:16.075Z,95
2017-01-09T10:09:26.175Z,105
2017-01-09T10:10:16.240Z,110
2017-01-09T10:11:16.717Z,125
2017-01-09T10:12:16.357Z,125
2017-01-09T10:13:16.740Z,130
2017-01-09T10:14:16.238Z,125
2017-01-09T10:15:16.016Z,120
2017-01-09T10:16:16.237Z,115
2017-01-09T10:17:16.080Z,115
2017-01-09T10:18:16.026Z,115
2017-01-09T10:19:16.115Z,120
2017-01-09T10:20:16.062Z,130
2017-01-09T10:21:15.927Z,135
2017-01-09T10:22:15.946Z,145
2017-01-09T10:23:16.193Z,155
2017-01-09T10:24:16.007Z,165
2017-01-09T10:25:16.044Z,165
2017-01-09T10:26:16.086Z,170
2017-01-09T10:27:16.184Z,175
2017-01-09T10:28:16.041Z,180
2017-01-09T10:29:16.071Z,180
2017-01-09T10:30:16.066Z,175
2017-01-09T10:31:15.945Z,180
2017-01-09T10:32:16.482Z,185
2017-01-09T10:33:16.170Z,195
2017-01-09T10:34:16.446Z,210
2017-01-09T10:35:16.124Z,220
2017-01-09T10:36:16.006Z,220
2017-01-09T10:37:16.238Z,215
2017-01-09T10:38:16.039Z,205
2017-01-09T10:39:16.378Z,195
2017-01-09T10:40:16.096Z,180
2017-01-09T10:41:16.097Z,165
2017-01-09T10:42:16.123Z,165
2017-01-09T10:43:16.101Z,175
2017-01-09T10:44:16.267Z,180
2017-01-09T10:45:15.957Z,190
2017-01-09T10:46:15.927Z,190
2017-01-09T10:47:16.007Z,185
2017-01-09T10:48:16.115Z,190
2017-01-09T10:49:16.039Z,195
2017-01-09T10:50:16.019Z,190
2017-01-09T10:51:16.029Z,185
2017-01-09T10:52:15.963Z,170
2017-01-09T10:53:16.181Z,160
2017-01-09T10:54:16.097Z,150
2017-01-09T10:55:16.141Z,140
2017-01-09T10:56:16.136Z,135
2017-01-09T10:57:15.981Z,135
2017-01-09T10:58:16.072Z,140
2017-01-09T10:59:16.041Z,140
2017-01-09T11:00:16.143Z,140
2017-01-09T11:01:16.265Z,135
2017-01-09T11:02:16.103Z,135
2017-01-09T11:03:16.116Z,135
2017-01-09T11:04:16.141Z,145
2017-01-09T11:05:16.237Z,160
2017-01-09T11:06:16.013Z,175
2017-01-09T11:07:16.020Z,185
2017-01-09T11:08:16.335Z,190
2017-01-09T11:09:16.755Z,190
2017-01-09T11:10:16.231Z,185
2017-01-09T11:11:16.244Z,185
2017-01-09T11:12:16.121Z,190
2017-01-09T11:13:17.117Z,190
2017-01-09T11:14:16.163Z,190
2017-01-09T11:15:16.221Z,190
2017-01-09T11:16:16.331Z,185
2017-01-09T11:17:16.219Z,180
2017-01-09T11:18:16.123Z,185
2017-01-09T11:19:16.133Z,180
2017-01-09T11:20:16.310Z,180
2017-01-09T11:21:16.214Z,185
2017-01-09T11:22:16.035Z,195
2017-01-09T11:23:16.100Z,200
2017-01-09T11:24:16.213Z,200
2017-01-09T11:25:16.174Z,205
2017-01-09T11:26:16.313Z,220
2017-01-09T11:27:16.224Z,235
2017-01-09T11:28:16.356Z,250
2017-01-09T11:29:16.841Z,255
2017-01-09T11:30:16.284Z,260
2017-01-09T11:31:16.354Z,265
2017-01-09T11:32:16.071Z,285
2017-01-09T11:33:16.030Z,315
2017-01-09T11:34:16.342Z,340
2017-01-09T11:35:16.062Z,365
2017-01-09T11:36:16.245Z,365
2017-01-09T11:37:16.079Z,360
2017-01-09T11:38:15.988Z,350
2017-01-09T11:39:16.216Z,330
2017-01-09T11:40:16.133Z,310
2017-01-09T11:41:16.195Z,300
2017-01-09T11:42:16.103Z,280
2017-01-09T11:43:16.265Z,270
2017-01-09T11:44:16.170Z,270
2017-01-09T11:45:16.096Z,270
2017-01-09T11:46:16.361Z,290
2017-01-09T11:47:16.129Z,300
2017-01-09T11:48:16.138Z,315
2017-01-09T11:49:16.182Z,325
2017-01-09T11:50:16.277Z,335
2017-01-09T11:51:16.138Z,345
2017-01-09T11:52:16.401Z,350
2017-01-09T11:53:16.229Z,355
2017-01-09T11:54:16.371Z,375
2017-01-09T11:55:16.180Z,395
2017-01-09T11:56:16.156Z,425
2017-01-09T11:57:17.444Z,435
2017-01-09T11:58:17.223Z,435
2017-01-09T11:59:16.889Z,430
2017-01-09T12:00:16.944Z,430
2017-01-09T12:01:17.008Z,425
2017-01-09T12:02:16.943Z,415
2017-01-09T12:03:16.934Z,395
2017-01-09T12:04:17.261Z,370
2017-01-09T12:05:17.049Z,335
2017-01-09T12:06:17.446Z,290
2017-01-09T12:07:18.000Z,240
2017-01-09T12:08:17.703Z,210
2017-01-09T12:09:18.096Z,200
2017-01-09T12:10:17.642Z,195
2017-01-09T12:11:17.947Z,195
2017-01-09T12:12:17.828Z,195
2017-01-09T12:13:18.237Z,195
2017-01-09T12:14:17.495Z,200
2017-01-09T12:15:17.751Z,230
2017-01-09T12:16:17.762Z,270
2017-01-09T12:17:17.919Z,300
2017-01-09T12:18:17.556Z,340
2017-01-09T12:19:17.038Z,365
2017-01-09T12:20:16.823Z,395
2017-01-09T12:21:16.989Z,445
2017-01-09T12:22:17.375Z,480
2017-01-09T12:23:17.262Z,470
2017-01-09T12:24:17.425Z,465
2017-01-09T12:25:17.928Z,500
2017-01-09T12:26:17.471Z,540
2017-01-09T12:27:17.863Z,540
2017-01-09T12:28:17.572Z,540
2017-01-09T12:29:17.616Z,555
2017-01-09T12:30:17.757Z,545
2017-01-09T12:31:17.667Z,555
2017-01-09T12:32:17.309Z,540
2017-01-09T12:33:17.386Z,505
2017-01-09T12:34:17.580Z,470
2017-01-09T12:35:17.774Z,435
2017-01-09T12:36:17.897Z,420
2017-01-09T12:37:18.285Z,425
2017-01-09T12:38:17.839Z,405
2017-01-09T12:39:18.556Z,355
2017-01-09T12:40:17.540Z,300
2017-01-09T12:41:18.015Z,255
2017-01-09T12:42:17.808Z,230
2017-01-09T12:43:17.937Z,210
2017-01-09T12:44:18.043Z,205
2017-01-09T12:45:17.633Z,215
2017-01-09T12:46:18.017Z,220
2017-01-09T12:47:21.462Z,210
2017-01-09T12:48:18.126Z,205
2017-01-09T12:49:18.256Z,200
2017-01-09T12:50:17.966Z,215
2017-01-09T12:51:17.953Z,245
2017-01-09T12:52:17.981Z,285
2017-01-09T12:53:17.877Z,315
2017-01-09T12:54:17.834Z,330
2017-01-09T12:55:18.265Z,330
2017-01-09T12:56:18.393Z,315
2017-01-09T12:57:18.150Z,290
2017-01-09T12:58:17.816Z,280
2017-01-09T12:59:18.185Z,275
2017-01-09T13:00:18.402Z,275
2017-01-09T13:01:18.359Z,285
2017-01-09T13:02:18.379Z,295
2017-01-09T13:03:18.048Z,300
2017-01-09T13:04:18.305Z,310
2017-01-09T13:05:18.404Z,325
2017-01-09T13:06:17.773Z,340
2017-01-09T13:07:18.170Z,355
2017-01-09T13:08:17.985Z,360
2017-01-09T13:09:18.453Z,350
2017-01-09T13:10:18.454Z,325
2017-01-09T13:11:18.104Z,315
2017-01-09T13:12:18.431Z,325
2017-01-09T13:13:18.761Z,335
2017-01-09T13:14:18.542Z,375
2017-01-09T13:15:18.365Z,455
2017-01-09T13:16:18.187Z,465
2017-01-09T13:17:18.216Z,470
2017-01-09T13:18:18.140Z,440
2017-01-09T13:19:17.737Z,400
2017-01-09T13:20:18.211Z,400
2017-01-09T13:21:18.117Z,405
2017-01-09T13:22:18.268Z,395
2017-01-09T13:23:18.048Z,395
2017-01-09T13:24:18.556Z,390
2017-01-09T13:25:18.127Z,360
2017-01-09T13:26:17.905Z,340
2017-01-09T13:27:18.179Z,340
2017-01-09T13:28:18.166Z,325
2017-01-09T13:29:19.218Z,315
2017-01-09T13:30:17.927Z,305
2017-01-09T13:31:18.139Z,300
2017-01-09T13:32:18.680Z,295
2017-01-09T13:33:18.291Z,285
2017-01-09T13:34:18.507Z,285
2017-01-09T13:35:18.556Z,285
2017-01-09T13:36:18.350Z,275
2017-01-09T13:37:18.251Z,270
2017-01-09T13:38:18.127Z,265
2017-01-09T13:39:18.266Z,265
2017-01-09T13:40:18.245Z,265
2017-01-09T13:41:18.301Z,265
2017-01-09T13:42:17.742Z,270
2017-01-09T13:43:18.307Z,275
2017-01-09T13:44:18.113Z,290
2017-01-09T13:45:18.413Z,295
2017-01-09T13:46:18.557Z,295
2017-01-09T13:47:18.255Z,280
2017-01-09T13:48:17.937Z,265
2017-01-09T13:49:18.047Z,255
2017-01-09T13:50:18.972Z,250
2017-01-09T13:51:18.304Z,250
2017-01-09T13:52:18.539Z,250
2017-01-09T13:53:18.213Z,245
2017-01-09T13:54:18.087Z,245
2017-01-09T13:55:18.055Z,240
2017-01-09T13:56:19.247Z,230
2017-01-09T13:57:18.477Z,220
2017-01-09T13:58:18.073Z,205
2017-01-09T13:59:18.458Z,190
2017-01-09T14:00:17.937Z,180
2017-01-09T14:01:18.199Z,160
2017-01-09T14:02:17.990Z,140
2017-01-09T14:03:18.231Z,125
2017-01-09T14:04:18.159Z,115
2017-01-09T14:05:18.190Z,110
2017-01-09T14:06:18.014Z,125
2017-01-09T14:07:18.015Z,135
2017-01-09T14:08:18.247Z,130
2017-01-09T14:09:18.919Z,120
2017-01-09T14:10:18.208Z,115
2017-01-09T14:11:18.550Z,115
2017-01-09T14:12:18.547Z,120
2017-01-09T14:13:18.371Z,110
2017-01-09T14:14:18.222Z,110
2017-01-09T14:15:18.297Z,115
2017-01-09T14:16:18.260Z,125
2017-01-09T14:17:18.327Z,125
2017-01-09T14:18:18.206Z,110
2017-01-09T14:19:18.508Z,110
2017-01-09T14:20:18.235Z,100
2017-01-09T14:21:18.202Z,100
2017-01-09T14:22:18.112Z,100
2017-01-09T14:23:18.873Z,105